Time;durP1;ratioP1;P1;durP2;ratioP2;P2;SDS_P1;SDS_P2;PMS_P1;PMS_P2;Temp;Humidity;BMP_temperature;BMP_pressure;BME280_temperature;BME280_humidity;BME280_pressure;Samples;Min_cycle;Max_cycle;Signal;HPM_P1;HPM_P2
2022/03/01 00:01:20;;;;;;;3.08;1.95;;;;;;;20.89;nan;99982.25;5136504;27;20039;-61
2022/03/01 00:03:45;;;;;;;3.28;2.03;;;;;;;20.92;nan;99980.69;5136594;27;20038;-61
2022/03/01 00:06:11;;;;;;;3.20;1.88;;;;;;;20.91;nan;99987.44;5136695;27;20051;-60
2022/03/01 00:08:36;;;;;;;3.38;2.13;;;;;;;20.90;nan;99978.28;5136448;27;20055;-59
2022/03/01 00:11:02;;;;;;;3.60;2.22;;;;;;;20.92;nan;99983.47;5136303;27;20118;-59
2022/03/01 00:13:27;;;;;;;2.83;1.67;;;;;;;20.89;nan;99994.16;5136166;27;20053;-60
2022/03/01 00:15:52;;;;;;;2.67;1.63;;;;;;;20.88;nan;99989.78;5132463;27;20043;-60
2022/03/01 00:18:18;;;;;;;2.80;1.92;;;;;;;20.80;nan;99985.22;5133183;28;20036;-60
2022/03/01 00:20:43;;;;;;;3.20;1.90;;;;;;;20.85;nan;99984.91;5132935;28;20075;-60
2022/03/01 00:23:09;;;;;;;2.45;1.63;;;;;;;20.85;nan;99986.91;5132859;28;20433;-60
2022/03/01 00:25:37;;;;;;;3.30;1.90;;;;;;;20.86;nan;99989.34;5132739;28;20049;-61
2022/03/01 00:28:02;;;;;;;2.60;1.58;;;;;;;20.86;nan;100006.03;5132901;28;20050;-60
2022/03/01 00:30:28;;;;;;;2.70;1.75;;;;;;;20.86;nan;100003.25;5132870;28;20125;-60
2022/03/01 00:32:53;;;;;;;2.35;1.73;;;;;;;20.82;nan;99996.78;5132978;28;20036;-60
2022/03/01 00:35:19;;;;;;;2.95;2.00;;;;;;;20.85;nan;99993.25;5132346;28;20100;-61
2022/03/01 00:37:45;;;;;;;3.13;1.98;;;;;;;20.85;nan;100003.56;5132838;28;20130;-61
2022/03/01 00:40:10;;;;;;;2.67;1.77;;;;;;;20.82;nan;100007.91;5132585;28;20130;-61
2022/03/01 00:42:36;;;;;;;2.38;1.50;;;;;;;20.80;nan;100001.09;5132458;28;20444;-61
2022/03/01 00:45:01;;;;;;;2.40;1.63;;;;;;;20.85;nan;100007.16;5132745;28;20141;-61
2022/03/01 00:47:27;;;;;;;3.55;2.00;;;;;;;20.83;nan;99998.38;5132741;28;20487;-61
2022/03/01 00:49:52;;;;;;;2.80;1.80;;;;;;;20.82;nan;100002.34;5132461;28;20074;-61
2022/03/01 00:52:17;;;;;;;2.92;1.70;;;;;;;20.83;nan;100000.34;5132492;28;20569;-61
2022/03/01 00:54:43;;;;;;;2.47;1.73;;;;;;;20.84;nan;100002.78;5132654;28;20134;-61
2022/03/01 00:57:08;;;;;;;3.03;1.90;;;;;;;20.81;nan;99995.16;5132475;28;20084;-62
2022/03/01 00:59:34;;;;;;;3.33;1.90;;;;;;;20.82;nan;100004.31;5132287;28;20086;-61
2022/03/01 01:01:59;;;;;;;3.00;1.95;;;;;;;20.83;nan;100003.13;5132441;28;20079;-61
2022/03/01 01:04:24;;;;;;;2.50;1.75;;;;;;;20.83;nan;100003.13;5132457;28;20035;-61
2022/03/01 01:06:50;;;;;;;2.72;1.77;;;;;;;20.83;nan;100003.94;5131164;28;20070;-61
2022/03/01 01:09:15;;;;;;;2.97;1.90;;;;;;;20.82;nan;100010.69;5132438;28;20039;-61
2022/03/01 01:11:41;;;;;;;3.28;2.00;;;;;;;20.82;nan;100007.91;5132333;28;20403;-61
2022/03/01 01:14:07;;;;;;;3.00;2.00;;;;;;;20.81;nan;100016.59;5113121;28;20416;-60
2022/03/01 01:16:33;;;;;;;2.53;1.75;;;;;;;20.82;nan;100013.47;5131786;28;20047;-60
2022/03/01 01:18:58;;;;;;;2.80;1.85;;;;;;;20.78;nan;100015.34;5132048;28;20039;-60
2022/03/01 01:22:39;;;;;;;3.30;2.10;;;;;;;20.79;nan;100016.16;5131901;28;20529;-61
2022/03/01 01:24:09;;;;;;;3.10;1.98;;;;;;;20.81;nan;100022.97;5131774;28;20585;-60
2022/03/01 01:26:34;;;;;;;2.80;1.95;;;;;;;20.80;nan;100020.56;5130951;27;20126;-60
2022/03/01 01:29:00;;;;;;;3.40;2.30;;;;;;;20.79;nan;100032.84;5131409;28;20039;-60
2022/03/01 01:31:25;;;;;;;3.17;1.90;;;;;;;20.79;nan;100025.31;5113476;28;20043;-60
2022/03/01 01:33:50;;;;;;;3.13;2.05;;;;;;;20.76;nan;100026.00;5131810;28;20039;-60
2022/03/01 01:36:16;;;;;;;2.90;1.80;;;;;;;20.78;nan;100031.22;5126324;28;20087;-61
2022/03/01 01:38:41;;;;;;;3.00;2.10;;;;;;;20.78;nan;100034.78;5111143;28;20039;-60
2022/03/01 01:41:07;;;;;;;2.58;1.85;;;;;;;20.78;nan;100040.34;5111220;28;20036;-61
2022/03/01 01:43:32;;;;;;;3.10;2.10;;;;;;;20.76;nan;100037.13;5111142;28;20101;-61
2022/03/01 01:45:57;;;;;;;2.92;2.08;;;;;;;20.78;nan;100040.34;5111144;28;20119;-61
2022/03/01 01:48:23;;;;;;;3.00;2.10;;;;;;;20.77;nan;100040.72;5111233;28;20450;-61
2022/03/01 01:50:48;;;;;;;3.08;1.92;;;;;;;20.80;nan;100043.59;5110920;28;20058;-63
2022/03/01 01:53:14;;;;;;;3.03;2.00;;;;;;;20.78;nan;100042.31;5111120;28;20196;-61
2022/03/01 01:55:39;;;;;;;2.65;1.73;;;;;;;20.77;nan;100038.75;5111201;28;20036;-61
2022/03/01 01:58:05;;;;;;;2.88;1.83;;;;;;;20.76;nan;100048.25;5111297;28;20116;-61
2022/03/01 02:00:30;;;;;;;3.47;2.20;;;;;;;20.77;nan;100046.28;5110783;28;20051;-61
2022/03/01 02:02:56;;;;;;;3.10;2.03;;;;;;;20.76;nan;100056.59;5110671;28;20047;-61
2022/03/01 02:05:22;;;;;;;2.97;2.10;;;;;;;20.74;nan;100052.56;5110877;28;20051;-61
2022/03/01 02:07:49;;;;;;;3.10;2.00;;;;;;;20.74;nan;100047.81;5110991;28;20066;-61
2022/03/01 02:10:16;;;;;;;3.33;2.20;;;;;;;20.75;nan;100063.31;5110665;28;20075;-61
2022/03/01 02:12:42;;;;;;;2.78;1.90;;;;;;;20.75;nan;100059.75;5110958;28;20052;-61
2022/03/01 02:15:09;;;;;;;2.78;2.00;;;;;;;20.75;nan;100062.53;5110270;28;20095;-61
2022/03/01 02:17:35;;;;;;;3.08;1.83;;;;;;;20.73;nan;100062.88;5110792;28;20039;-61
2022/03/01 02:20:05;;;;;;;2.83;1.90;;;;;;;20.74;nan;100060.91;5110557;28;20102;-61
2022/03/01 02:22:33;;;;;;;3.15;1.95;;;;;;;20.72;nan;100061.28;5110386;28;20040;-61
2022/03/01 02:24:58;;;;;;;3.15;2.00;;;;;;;20.73;nan;100059.31;5110596;28;20040;-61
2022/03/01 02:27:23;;;;;;;3.13;2.13;;;;;;;20.72;nan;100050.16;5110333;28;20420;-61
2022/03/01 02:29:49;;;;;;;3.40;2.00;;;;;;;20.72;nan;100049.34;5110459;28;20663;-61
2022/03/01 02:32:14;;;;;;;2.95;1.92;;;;;;;20.73;nan;100053.75;5110219;28;20079;-61
2022/03/01 02:34:40;;;;;;;2.58;1.70;;;;;;;20.72;nan;100047.38;5110559;28;20044;-61
2022/03/01 02:37:05;;;;;;;3.35;2.25;;;;;;;20.71;nan;100044.94;5110279;28;20036;-60
2022/03/01 02:39:31;;;;;;;3.08;1.98;;;;;;;20.73;nan;100059.31;5109883;28;20043;-61
2022/03/01 02:41:56;;;;;;;2.78;1.77;;;;;;;20.73;nan;100053.75;5110107;28;20089;-61
2022/03/01 02:44:22;;;;;;;3.13;2.00;;;;;;;20.72;nan;100058.50;5110135;28;20063;-61
2022/03/01 02:46:47;;;;;;;2.90;2.00;;;;;;;20.70;nan;100052.47;5110213;28;20055;-61
2022/03/01 02:49:13;;;;;;;3.40;2.08;;;;;;;20.73;nan;100053.75;5110059;28;20047;-61
2022/03/01 02:51:39;;;;;;;2.90;1.63;;;;;;;20.72;nan;100043.78;5109982;28;20051;-61
2022/03/01 02:54:06;;;;;;;2.90;1.88;;;;;;;20.74;nan;100052.56;5110217;28;20089;-61
2022/03/01 02:56:32;;;;;;;3.05;1.98;;;;;;;20.73;nan;100051.75;5110316;28;20055;-60
2022/03/01 02:58:59;;;;;;;2.97;1.92;;;;;;;20.72;nan;100055.72;5110214;28;20572;-60
2022/03/01 03:01:25;;;;;;;3.28;1.90;;;;;;;20.71;nan;100045.72;5110018;28;20048;-61
2022/03/01 03:03:51;;;;;;;2.85;1.80;;;;;;;20.71;nan;100054.06;5110296;28;20040;-61
2022/03/01 03:06:17;;;;;;;2.70;1.90;;;;;;;20.68;nan;100049.25;5109793;28;20458;-61
2022/03/01 03:08:43;;;;;;;3.03;1.90;;;;;;;20.70;nan;100044.13;5109994;28;20052;-61
2022/03/01 03:11:08;;;;;;;3.25;2.08;;;;;;;20.68;nan;100056.78;5109838;28;20044;-61
2022/03/01 03:13:34;;;;;;;3.55;2.13;;;;;;;20.69;nan;100064.75;5109759;28;20039;-61
2022/03/01 03:15:59;;;;;;;3.22;2.10;;;;;;;20.67;nan;100055.97;5109634;28;20096;-61
2022/03/01 03:18:25;;;;;;;3.10;1.90;;;;;;;20.68;nan;100063.13;5109865;28;20419;-61
2022/03/01 03:20:50;;;;;;;3.20;2.03;;;;;;;20.68;nan;100059.56;5109640;28;20415;-61
2022/03/01 03:23:16;;;;;;;2.85;1.95;;;;;;;20.68;nan;100056.78;5109522;28;20406;-61
2022/03/01 03:25:41;;;;;;;3.50;2.10;;;;;;;20.68;nan;100060.38;5109594;28;20044;-61
2022/03/01 03:28:06;;;;;;;2.90;2.00;;;;;;;20.69;nan;100064.75;5108860;28;20048;-61
2022/03/01 03:30:32;;;;;;;3.13;2.20;;;;;;;20.68;nan;100063.13;5109582;28;20415;-60
2022/03/01 03:32:57;;;;;;;3.10;1.90;;;;;;;20.68;nan;100056.78;5109543;28;20082;-61
2022/03/01 03:35:23;;;;;;;3.00;1.90;;;;;;;20.68;nan;100062.34;5109559;28;20078;-61
2022/03/01 03:37:48;;;;;;;3.10;2.00;;;;;;;20.65;nan;100071.41;5109235;28;20043;-61
2022/03/01 03:40:14;;;;;;;3.15;2.00;;;;;;;20.65;nan;100069.44;5109495;28;20059;-61
2022/03/01 03:42:41;;;;;;;3.10;2.10;;;;;;;20.66;nan;100073.81;5109570;28;20415;-63
2022/03/01 03:45:08;;;;;;;3.20;2.00;;;;;;;20.66;nan;100068.25;5109431;28;20044;-63
2022/03/01 03:47:33;;;;;;;3.30;2.17;;;;;;;20.66;nan;100064.69;5109533;28;20094;-63
2022/03/01 03:49:58;;;;;;;3.28;2.13;;;;;;;20.66;nan;100062.69;5109490;28;20073;-63
2022/03/01 03:52:24;;;;;;;2.80;1.80;;;;;;;20.65;nan;100065.84;5112757;28;20043;-63
2022/03/01 03:54:50;;;;;;;3.17;1.88;;;;;;;20.67;nan;100066.28;5112738;28;20088;-63
2022/03/01 03:57:16;;;;;;;3.17;2.00;;;;;;;20.64;nan;100064.22;5112766;28;20676;-63
2022/03/01 03:59:41;;;;;;;3.75;2.30;;;;;;;20.65;nan;100069.44;5112923;28;20036;-63
2022/03/01 04:02:07;;;;;;;2.83;1.90;;;;;;;20.65;nan;100075.00;5112707;28;20062;-63
2022/03/01 04:04:33;;;;;;;2.85;1.90;;;;;;;20.64;nan;100075.31;5112801;28;20507;-62
2022/03/01 04:06:58;;;;;;;3.33;2.05;;;;;;;20.65;nan;100072.22;5112632;28;20035;-62
2022/03/01 04:09:24;;;;;;;3.40;2.25;;;;;;;20.64;nan;100075.31;5112774;28;20377;-63
2022/03/01 04:11:49;;;;;;;3.33;2.20;;;;;;;20.64;nan;100076.13;5112581;28;20047;-63
2022/03/01 04:14:17;;;;;;;2.85;1.83;;;;;;;20.64;nan;100078.91;5112378;28;20067;-63
2022/03/01 04:16:43;;;;;;;3.20;2.08;;;;;;;20.61;nan;100074.06;5112687;28;20082;-62
2022/03/01 04:19:09;;;;;;;2.78;1.83;;;;;;;20.62;nan;100078.47;5112519;28;20035;-62
2022/03/01 04:21:35;;;;;;;2.80;1.65;;;;;;;20.61;nan;100079.63;5112602;28;20130;-63
2022/03/01 04:24:01;;;;;;;2.92;1.92;;;;;;;20.59;nan;100088.34;5112220;28;20123;-62
2022/03/01 04:26:27;;;;;;;3.20;1.90;;;;;;;20.60;nan;100086.38;5112300;28;20488;-62
2022/03/01 04:28:52;;;;;;;2.90;1.95;;;;;;;20.61;nan;100086.00;5112325;28;20054;-62
2022/03/01 04:31:18;;;;;;;3.00;1.83;;;;;;;20.61;nan;100090.75;5111880;28;20052;-62
2022/03/01 04:33:43;;;;;;;3.35;2.20;;;;;;;20.60;nan;100089.16;5112248;28;20491;-63
2022/03/01 04:36:08;;;;;;;3.58;2.22;;;;;;;20.59;nan;100093.09;5112132;28;20075;-63
2022/03/01 04:38:35;;;;;;;2.60;1.83;;;;;;;20.60;nan;100094.69;5112193;28;20411;-63
2022/03/01 04:41:00;;;;;;;3.20;2.10;;;;;;;20.56;nan;100086.25;5112309;28;20048;-63
2022/03/01 04:43:26;;;;;;;3.13;2.17;;;;;;;20.58;nan;100094.25;5112034;28;20400;-63
2022/03/01 04:45:52;;;;;;;2.80;1.70;;;;;;;20.58;nan;100099.81;5112062;28;20062;-63
2022/03/01 04:48:18;;;;;;;2.90;1.90;;;;;;;20.58;nan;100094.25;5111994;28;20043;-63
2022/03/01 04:50:43;;;;;;;3.22;1.80;;;;;;;20.57;nan;100090.69;5111939;28;20040;-63
2022/03/01 04:53:10;;;;;;;3.10;1.90;;;;;;;20.56;nan;100091.81;5111983;28;20042;-63
2022/03/01 04:55:36;;;;;;;3.28;1.98;;;;;;;20.58;nan;100092.28;5111861;28;20123;-63
2022/03/01 04:58:02;;;;;;;3.17;1.90;;;;;;;20.56;nan;100091.81;5111741;28;20127;-63
2022/03/01 05:00:27;;;;;;;2.85;1.90;;;;;;;20.57;nan;100084.28;5111967;28;20078;-63
2022/03/01 05:02:53;;;;;;;3.85;2.10;;;;;;;20.57;nan;100093.44;5111608;28;20080;-63
2022/03/01 05:05:18;;;;;;;3.50;2.10;;;;;;;20.57;nan;100098.19;5112033;28;20039;-63
2022/03/01 05:07:47;;;;;;;2.80;1.73;;;;;;;20.56;nan;100105.72;5111913;28;20126;-63
2022/03/01 05:10:17;;;;;;;3.58;2.20;;;;;;;20.56;nan;100102.13;5111710;28;20047;-63
2022/03/01 05:12:53;;;;;;;3.42;2.03;;;;;;;20.55;nan;100108.84;5111650;28;20047;-63
2022/03/01 05:15:19;;;;;;;3.00;1.95;;;;;;;20.54;nan;100096.13;5111531;28;20089;-63
2022/03/01 05:17:46;;;;;;;3.13;2.00;;;;;;;20.52;nan;100104.03;5111634;28;20530;-63
2022/03/01 05:20:13;;;;;;;2.92;1.92;;;;;;;20.54;nan;100102.50;5111333;28;20108;-63
2022/03/01 05:22:39;;;;;;;2.50;1.75;;;;;;;20.54;nan;100107.25;5111350;28;20044;-63
2022/03/01 05:25:09;;;;;;;2.90;1.90;;;;;;;20.54;nan;100101.69;5111465;28;20557;-63
2022/03/01 05:27:34;;;;;;;2.80;1.90;;;;;;;20.52;nan;100107.59;5111382;28;20035;-63
2022/03/01 05:30:00;;;;;;;3.42;1.98;;;;;;;20.52;nan;100107.59;5111380;28;20035;-63
2022/03/01 05:32:25;;;;;;;3.15;2.05;;;;;;;20.52;nan;100112.34;5110904;28;20050;-62
2022/03/01 05:34:51;;;;;;;2.92;1.83;;;;;;;20.53;nan;100122.31;5110544;28;20411;-62
2022/03/01 05:37:17;;;;;;;3.35;2.00;;;;;;;20.52;nan;100118.72;5110976;28;20422;-63
2022/03/01 05:39:42;;;;;;;2.53;1.73;;;;;;;20.51;nan;100119.88;5111213;28;20040;-63
2022/03/01 05:42:08;;;;;;;2.72;1.80;;;;;;;20.51;nan;100124.63;5111147;28;20051;-63
2022/03/01 05:44:34;;;;;;;3.35;2.03;;;;;;;20.51;nan;100130.19;5111284;28;20389;-63
2022/03/01 05:46:59;;;;;;;2.80;1.85;;;;;;;20.52;nan;100127.06;5111261;28;20623;-63
2022/03/01 05:49:25;;;;;;;3.00;1.80;;;;;;;20.52;nan;100132.63;5111103;28;20046;-63
2022/03/01 05:51:50;;;;;;;2.45;1.70;;;;;;;20.50;nan;100129.38;5110781;28;20035;-63
2022/03/01 05:54:16;;;;;;;2.92;1.77;;;;;;;20.52;nan;100129.03;5111008;28;20047;-64
2022/03/01 05:56:41;;;;;;;2.35;1.58;;;;;;;20.52;nan;100135.41;5111057;28;20400;-63
2022/03/01 05:59:07;;;;;;;2.70;1.80;;;;;;;20.51;nan;100130.19;5110868;28;20050;-63
2022/03/01 06:01:32;;;;;;;2.67;1.83;;;;;;;20.49;nan;100126.94;5110625;28;20051;-63
2022/03/01 06:03:58;;;;;;;2.80;1.73;;;;;;;20.64;nan;100134.50;5110833;28;20108;-63
2022/03/01 06:06:24;;;;;;;2.88;1.90;;;;;;;21.43;nan;100132.59;5110860;28;20036;-63
2022/03/01 06:08:49;;;;;;;2.53;1.70;;;;;;;22.48;nan;100134.47;5110984;28;20047;-63
2022/03/01 06:11:14;;;;;;;3.15;1.80;;;;;;;23.37;nan;100135.25;5110700;28;20043;-64
2022/03/01 06:13:40;;;;;;;2.88;1.83;;;;;;;23.40;nan;100125.31;5109458;28;20054;-64
2022/03/01 06:16:06;;;;;;;2.70;1.80;;;;;;;22.83;nan;100136.31;5110260;28;20066;-63
2022/03/01 06:18:31;;;;;;;2.65;1.90;;;;;;;22.30;nan;100130.53;5110535;28;20035;-63
2022/03/01 06:20:58;;;;;;;2.45;1.55;;;;;;;21.93;nan;100130.09;5110669;28;20101;-64
2022/03/01 06:23:24;;;;;;;2.63;1.73;;;;;;;21.66;nan;100131.91;5110316;28;20051;-63
2022/03/01 06:25:50;;;;;;;3.40;2.03;;;;;;;21.44;nan;100136.19;5110046;28;20043;-64
2022/03/01 06:28:15;;;;;;;2.67;1.70;;;;;;;21.31;nan;100135.47;5110354;28;20048;-63
2022/03/01 06:30:41;;;;;;;3.47;1.88;;;;;;;21.20;nan;100130.78;5110457;28;20701;-64
2022/03/01 06:33:06;;;;;;;2.47;1.70;;;;;;;21.10;nan;100140.47;5110141;28;20047;-64
2022/03/01 06:35:31;;;;;;;2.70;1.90;;;;;;;21.01;nan;100143.44;5110150;28;20040;-63
2022/03/01 06:37:57;;;;;;;2.92;1.80;;;;;;;20.98;nan;100154.47;5110290;28;20057;-63
2022/03/01 06:40:23;;;;;;;3.13;1.80;;;;;;;20.99;nan;100147.72;5109824;28;20045;-62
2022/03/01 06:42:49;;;;;;;3.20;2.00;;;;;;;20.99;nan;100150.50;5109874;28;20051;-62
2022/03/01 06:45:16;;;;;;;4.13;1.88;;;;;;;20.92;nan;100151.13;5109931;28;20047;-62
2022/03/01 06:47:42;;;;;;;3.05;2.08;;;;;;;20.88;nan;100156.63;5110201;28;20127;-62
2022/03/01 06:50:09;;;;;;;2.50;1.70;;;;;;;20.85;nan;100153.72;5109826;28;20122;-62
2022/03/01 06:52:35;;;;;;;2.80;1.60;;;;;;;20.82;nan;100152.47;5109783;28;20427;-62
2022/03/01 06:55:05;;;;;;;3.00;1.60;;;;;;;20.79;nan;100164.31;5110047;28;20051;-62
2022/03/01 06:57:31;;;;;;;2.80;1.75;;;;;;;20.76;nan;100169.78;5109973;28;20503;-62
2022/03/01 06:59:57;;;;;;;6.32;1.90;;;;;;;20.75;nan;100180.09;5109786;28;20043;-62
2022/03/01 07:02:22;;;;;;;3.00;1.67;;;;;;;20.74;nan;100181.25;5109606;28;20472;-61
2022/03/01 07:04:48;;;;;;;2.63;1.60;;;;;;;20.73;nan;100182.44;5108930;28;20100;-62
2022/03/01 07:07:13;;;;;;;3.17;2.10;;;;;;;20.72;nan;100186.38;5109931;28;20089;-61
2022/03/01 07:09:39;;;;;;;3.20;2.00;;;;;;;20.73;nan;100188.00;5109026;28;20048;-61
2022/03/01 07:12:04;;;;;;;6.65;1.98;;;;;;;20.69;nan;100181.50;5109584;28;20048;-61
2022/03/01 07:14:30;;;;;;;3.38;2.03;;;;;;;20.72;nan;100193.91;5096229;28;20047;-62
2022/03/01 07:16:55;;;;;;;3.25;2.13;;;;;;;20.74;nan;100188.78;5089192;28;20040;-61
2022/03/01 07:19:21;;;;;;;3.25;1.90;;;;;;;20.73;nan;100199.09;5089169;28;20492;-61
2022/03/01 07:21:46;;;;;;;3.70;2.28;;;;;;;20.95;nan;100196.91;5089114;28;20040;-61
2022/03/01 07:24:12;;;;;;;3.53;2.17;;;;;;;21.68;nan;100210.31;5108564;28;20040;-61
2022/03/01 07:26:38;;;;;;;2.53;1.70;;;;;;;22.49;nan;100208.56;5112363;28;20422;-61
2022/03/01 07:29:04;;;;;;;3.13;1.88;;;;;;;23.23;nan;100219.56;5113358;28;20492;-61
2022/03/01 07:31:29;;;;;;;4.65;2.15;;;;;;;23.37;nan;100221.00;5113430;28;20145;-61
2022/03/01 07:33:54;;;;;;;6.93;2.55;;;;;;;22.81;nan;100227.91;5113170;28;20565;-62
2022/03/01 07:36:20;;;;;;;6.30;2.10;;;;;;;22.37;nan;100222.66;5113058;28;20090;-62
2022/03/01 07:38:45;;;;;;;3.88;2.33;;;;;;;22.03;nan;100226.22;5111764;28;20050;-62
2022/03/01 07:41:11;;;;;;;3.40;2.17;;;;;;;21.77;nan;100216.47;5112771;28;20056;-62
2022/03/01 07:43:36;;;;;;;3.53;2.30;;;;;;;21.61;nan;100219.28;5112879;28;20071;-62
2022/03/01 07:46:03;;;;;;;4.03;2.05;;;;;;;21.50;nan;100222.97;5113351;28;20050;-62
2022/03/01 07:48:28;;;;;;;4.13;2.40;;;;;;;21.41;nan;100234.28;5111441;28;20054;-64
2022/03/01 07:50:54;;;;;;;4.95;2.40;;;;;;;21.35;nan;100236.53;5100026;28;20386;-65
2022/03/01 07:53:19;;;;;;;3.40;2.42;;;;;;;21.22;nan;100232.19;5095553;28;20044;-62
2022/03/01 07:55:45;;;;;;;4.32;2.40;;;;;;;21.21;nan;100240.88;5097663;28;20063;-62
2022/03/01 07:58:10;;;;;;;4.38;2.30;;;;;;;21.14;nan;100230.38;5096838;28;20031;-62
2022/03/01 08:00:35;;;;;;;4.45;2.38;;;;;;;21.11;nan;100233.88;5096968;28;20040;-62
2022/03/01 08:03:01;;;;;;;4.63;2.30;;;;;;;21.07;nan;100235.75;5098019;28;20040;-64
2022/03/01 08:05:26;;;;;;;3.38;2.15;;;;;;;21.08;nan;100238.19;5096330;28;20093;-61
2022/03/01 08:07:52;;;;;;;4.03;2.47;;;;;;;21.04;nan;100242.03;5113970;28;20687;-62
2022/03/01 08:10:18;;;;;;;5.15;2.55;;;;;;;21.01;nan;100242.75;5096674;28;20050;-62
2022/03/01 08:12:43;;;;;;;4.72;2.30;;;;;;;21.05;nan;100246.44;5093134;28;20036;-61
2022/03/01 08:15:09;;;;;;;4.05;2.20;;;;;;;21.07;nan;100247.69;5095859;28;20050;-61
2022/03/01 08:17:35;;;;;;;6.38;2.33;;;;;;;21.11;nan;100247.78;5097394;28;20044;-64
2022/03/01 08:20:00;;;;;;;5.97;2.45;;;;;;;21.10;nan;100247.00;5087707;28;20043;-64
2022/03/01 08:22:26;;;;;;;3.22;2.13;;;;;;;21.09;nan;100247.34;5073478;28;20067;-60
2022/03/01 08:24:51;;;;;;;3.45;2.22;;;;;;;21.08;nan;100254.09;5074594;28;20039;-62
2022/03/01 08:27:17;;;;;;;3.38;2.28;;;;;;;21.08;nan;100249.31;5077520;28;20397;-64
2022/03/01 08:29:43;;;;;;;6.38;2.17;;;;;;;21.10;nan;100251.75;5079622;28;20063;-63
2022/03/01 08:32:08;;;;;;;5.43;2.40;;;;;;;21.12;nan;100257.75;5076230;28;20058;-62
2022/03/01 08:34:34;;;;;;;4.10;2.47;;;;;;;21.09;nan;100247.34;5076476;28;20042;-64
2022/03/01 08:36:59;;;;;;;4.90;2.80;;;;;;;21.14;nan;100252.63;5079568;28;20641;-60
2022/03/01 08:39:25;;;;;;;3.67;2.58;;;;;;;21.28;nan;100250.25;5077758;28;20097;-61
2022/03/01 08:41:53;;;;;;;7.53;2.25;;;;;;;21.39;nan;100247.75;5072047;28;20052;-60
2022/03/01 08:44:19;;;;;;;4.05;2.67;;;;;;;21.31;nan;100246.78;5080839;28;20036;-60
2022/03/01 08:46:45;;;;;;;4.50;2.63;;;;;;;21.27;nan;100245.84;5078448;28;20775;-63
2022/03/01 08:49:10;;;;;;;7.90;2.90;;;;;;;21.23;nan;100247.72;5077856;28;20167;-64
2022/03/01 08:51:35;;;;;;;3.83;2.58;;;;;;;21.24;nan;100246.56;5079098;28;20043;-59
2022/03/01 08:54:02;;;;;;;4.00;2.40;;;;;;;21.32;nan;100242.00;5079393;28;20048;-60
2022/03/01 08:56:28;;;;;;;4.28;2.45;;;;;;;21.41;nan;100240.66;5077425;28;20842;-63
2022/03/01 08:58:55;;;;;;;3.67;2.30;;;;;;;21.48;nan;100242.81;5079408;28;20130;-62
2022/03/01 09:01:21;;;;;;;3.58;2.28;;;;;;;21.69;nan;100237.78;5079272;28;20035;-61
2022/03/01 09:03:46;;;;;;;3.85;2.20;;;;;;;22.14;nan;100247.59;5076865;28;20060;-59
2022/03/01 09:06:12;;;;;;;6.00;2.70;;;;;;;22.30;nan;100241.19;5076530;28;20514;-62
2022/03/01 09:08:40;;;;;;;4.82;2.50;;;;;;;22.35;nan;100252.03;5079341;28;20051;-62
2022/03/01 09:11:06;;;;;;;3.53;2.20;;;;;;;22.39;nan;100248.16;5075785;28;20488;-59
2022/03/01 09:13:32;;;;;;;3.50;2.40;;;;;;;22.43;nan;100240.72;5074827;28;20047;-59
2022/03/01 09:15:57;;;;;;;3.33;2.38;;;;;;;22.51;nan;100248.03;5076707;28;20050;-57
2022/03/01 09:18:23;;;;;;;3.65;2.08;;;;;;;22.57;nan;100239.38;5078735;28;20040;-61
2022/03/01 09:20:49;;;;;;;3.55;2.08;;;;;;;22.66;nan;100242.75;5074318;28;20044;-61
2022/03/01 09:23:14;;;;;;;3.10;2.00;;;;;;;22.72;nan;100242.09;5071614;28;20515;-60
2022/03/01 09:25:40;;;;;;;3.17;2.15;;;;;;;22.77;nan;100243.75;5067146;28;20058;-59
2022/03/01 09:28:06;;;;;;;3.58;2.30;;;;;;;22.76;nan;100233.78;5075286;28;20047;-59
2022/03/01 09:30:32;;;;;;;4.68;2.30;;;;;;;22.82;nan;100239.88;5081215;28;20040;-59
2022/03/01 09:32:58;;;;;;;4.40;2.40;;;;;;;22.84;nan;100237.53;5072145;28;20083;-60
2022/03/01 09:35:23;;;;;;;4.30;2.10;;;;;;;22.90;nan;100230.50;5078739;28;20405;-62
2022/03/01 09:37:49;;;;;;;4.13;2.10;;;;;;;22.88;nan;100228.09;5091224;28;20074;-60
2022/03/01 09:40:15;;;;;;;4.60;2.10;;;;;;;22.91;nan;100235.72;5085136;28;20042;-62
2022/03/01 09:42:42;;;;;;;3.40;2.20;;;;;;;22.88;nan;100232.88;5094517;28;20047;-61
2022/03/01 09:45:09;;;;;;;4.18;2.40;;;;;;;22.90;nan;100242.47;5086232;28;20742;-60
2022/03/01 09:47:35;;;;;;;3.30;2.10;;;;;;;22.89;nan;100232.50;5089179;27;20170;-60
2022/03/01 09:50:00;;;;;;;3.03;2.10;;;;;;;22.91;nan;100227.34;5088788;27;20050;-57
2022/03/01 09:52:26;;;;;;;3.75;2.28;;;;;;;22.95;nan;100228.22;5090742;27;20095;-60
2022/03/01 09:54:52;;;;;;;2.90;1.83;;;;;;;22.99;nan;100229.09;5086726;27;20057;-60
2022/03/01 09:57:19;;;;;;;4.18;2.30;;;;;;;23.05;nan;100224.81;5089923;27;20307;-61
2022/03/01 09:59:47;;;;;;;3.53;2.10;;;;;;;23.06;nan;100229.22;5092203;28;20058;-62
2022/03/01 10:02:12;;;;;;;5.25;2.53;;;;;;;23.05;nan;100232.38;5095866;28;20100;-61
2022/03/01 10:05:01;;;;;;;6.25;2.40;;;;;;;23.00;nan;100229.88;5097437;28;20039;-62
2022/03/01 10:07:30;;;;;;;3.47;2.20;;;;;;;23.05;nan;100222.03;5096461;27;20051;-59
2022/03/01 10:10:05;;;;;;;5.20;2.17;;;;;;;23.14;nan;100223.75;5093341;28;20035;-58
2022/03/01 10:12:32;;;;;;;3.47;2.15;;;;;;;23.22;nan;100219.94;5092541;28;20118;-59
2022/03/01 10:15:06;;;;;;;4.90;2.38;;;;;;;23.32;nan;100219.31;5093937;28;20142;-62
2022/03/01 10:17:43;;;;;;;3.47;2.20;;;;;;;23.39;nan;100216.66;5098385;28;20036;-59
2022/03/01 10:20:14;;;;;;;5.53;2.00;;;;;;;23.49;nan;100229.97;5100339;28;20087;-59
2022/03/01 10:22:46;;;;;;;3.33;2.17;;;;;;;23.53;nan;100230.03;5098346;28;20052;-63
2022/03/01 10:25:14;;;;;;;;;;;;;;;23.63;nan;100217.47;5088042;27;20104;-61
2022/03/01 10:27:43;;;;;;;7.10;2.08;;;;;;;23.66;nan;100219.50;5097965;28;20007;-68
2022/03/01 10:30:10;;;;;;;4.10;2.35;;;;;;;23.74;nan;100222.03;5097896;28;20047;-57
2022/03/01 10:32:36;;;;;;;3.10;2.10;;;;;;;23.82;nan;100215.38;5092073;27;20050;-57
2022/03/01 10:35:09;;;;;;;3.55;2.30;;;;;;;23.83;nan;100202.22;5096726;28;20434;-59
2022/03/01 10:37:37;;;;;;;3.35;2.10;;;;;;;23.91;nan;100198.34;5096107;28;20432;-59
2022/03/01 10:40:17;;;;;;;2.95;2.10;;;;;;;23.96;nan;100197.22;5087709;28;20074;-60
2022/03/01 10:42:43;;;;;;;3.80;1.90;;;;;;;23.99;nan;100191.66;5094626;28;20054;-61
2022/03/01 10:45:10;;;;;;;4.20;2.10;;;;;;;24.00;nan;100186.88;5099327;28;20054;-60
2022/03/01 10:47:37;;;;;;;2.97;2.00;;;;;;;24.00;nan;100187.69;5091884;28;20054;-59
2022/03/01 10:50:09;;;;;;;3.58;2.15;;;;;;;24.03;nan;100186.94;5098406;28;20605;-61
2022/03/01 10:52:37;;;;;;;3.25;2.25;;;;;;;24.14;nan;100187.06;5096175;27;20039;-59
2022/03/01 10:55:04;;;;;;;3.33;2.10;;;;;;;24.23;nan;100184.03;5088306;28;20054;-63
2022/03/01 10:57:29;;;;;;;3.67;2.30;;;;;;;24.20;nan;100179.16;5091413;27;20078;-64
2022/03/01 10:59:55;;;;;;;5.15;2.00;;;;;;;24.26;nan;100174.84;5090793;27;20134;-60
2022/03/01 11:02:21;;;;;;;5.40;2.10;;;;;;;24.30;nan;100170.13;5097104;28;20043;-64
2022/03/01 11:04:48;;;;;;;3.30;2.10;;;;;;;24.33;nan;100166.59;5093995;27;20047;-61
2022/03/01 11:07:15;;;;;;;4.82;2.10;;;;;;;24.37;nan;100161.88;5094608;28;20047;-60
2022/03/01 11:09:43;;;;;;;3.97;2.15;;;;;;;23.90;nan;100152.03;5093040;28;20536;-65
2022/03/01 11:12:09;;;;;;;5.45;2.10;;;;;;;23.49;nan;100159.34;5096019;28;20096;-61
2022/03/01 11:14:37;;;;;;;3.50;2.08;;;;;;;23.04;nan;100161.81;5096452;28;20121;-62
2022/03/01 11:17:28;;;;;;;2.78;2.00;;;;;;;22.66;nan;100154.34;5094534;28;20043;-62
2022/03/01 11:20:15;;;;;;;4.65;2.45;;;;;;;22.38;nan;100160.16;5094195;28;20138;-62
2022/03/01 11:22:46;;;;;;;3.33;2.25;;;;;;;22.14;nan;100149.28;5089370;27;20039;-63
2022/03/01 11:25:20;;;;;;;3.42;2.20;;;;;;;21.98;nan;100140.97;5087733;28;20100;-63
2022/03/01 11:28:03;;;;;;;4.05;2.47;;;;;;;21.87;nan;100137.97;5090299;28;20557;-63
2022/03/01 11:30:34;;;;;;;2.85;2.00;;;;;;;21.77;nan;100130.16;5081949;28;20729;-62
2022/03/01 11:33:00;;;;;;;3.25;2.17;;;;;;;21.70;nan;100135.56;5094366;28;20503;-62
2022/03/01 11:35:29;;;;;;;3.33;2.28;;;;;;;21.66;nan;100134.69;5114361;28;20042;-62
2022/03/01 11:38:15;;;;;;;3.35;2.30;;;;;;;21.60;nan;100127.78;5115729;28;20127;-62